Time;durP1;ratioP1;P1;durP2;ratioP2;P2;SDS_P1;SDS_P2;PMS_P1;PMS_P2;Temp;Humidity;BMP_temperature;BMP_pressure;BME280_temperature;BME280_humidity;BME280_pressure;Samples;Min_cycle;Max_cycle;Signal;HPM_P1;HPM_P2
2021/10/12 00:00:58;;;;;;;26.07;11.37;;;;;;;6.29;100.00;94469.09;5072553;28;20233;-77
2021/10/12 00:03:24;;;;;;;26.27;10.77;;;;;;;6.29;100.00;94463.91;5072367;28;20227;-78
2021/10/12 00:05:50;;;;;;;23.10;10.53;;;;;;;6.25;100.00;94464.38;5072080;28;20252;-78
2021/10/12 00:08:18;;;;;;;24.13;10.83;;;;;;;6.23;100.00;94464.53;5072818;28;20256;-78
2021/10/12 00:10:45;;;;;;;24.83;10.93;;;;;;;6.25;100.00;94470.34;5074390;28;20591;-77
2021/10/12 00:13:11;;;;;;;25.13;10.70;;;;;;;6.26;100.00;94461.63;5075794;28;20206;-78
2021/10/12 00:15:38;;;;;;;23.87;10.87;;;;;;;6.23;100.00;94459.34;5076568;28;20199;-77
2021/10/12 00:18:04;;;;;;;27.07;11.00;;;;;;;6.21;100.00;94461.28;5076346;28;20257;-78
2021/10/12 00:20:30;;;;;;;34.27;12.20;;;;;;;6.33;100.00;94467.00;5076789;28;20256;-78
2021/10/12 00:22:57;;;;;;;27.30;11.83;;;;;;;6.32;100.00;94467.16;5076347;28;20284;-78
2021/10/12 00:25:25;;;;;;;23.13;10.13;;;;;;;6.28;100.00;94464.88;5076517;28;20550;-77
2021/10/12 00:27:51;;;;;;;22.70;10.20;;;;;;;6.29;100.00;94450.09;5076188;28;20202;-77
2021/10/12 00:30:17;;;;;;;23.07;10.33;;;;;;;6.27;100.00;94459.84;5076007;28;20256;-77
2021/10/12 00:32:44;;;;;;;22.83;10.37;;;;;;;6.25;100.00;94460.00;5076039;28;20202;-78
2021/10/12 00:35:10;;;;;;;20.80;10.13;;;;;;;6.24;100.00;94453.16;5076420;28;20202;-78
2021/10/12 00:37:37;;;;;;;26.90;11.80;;;;;;;6.26;100.00;94453.84;5075752;28;20252;-78
2021/10/12 00:40:05;;;;;;;22.13;10.93;;;;;;;6.26;100.00;94451.25;5075973;28;20202;-78
2021/10/12 00:42:32;;;;;;;25.67;11.23;;;;;;;6.25;100.00;94444.44;5075887;28;20624;-77
2021/10/12 00:44:59;;;;;;;23.03;10.40;;;;;;;6.25;100.00;94447.03;5075644;28;20211;-77
2021/10/12 00:47:26;;;;;;;31.10;10.50;;;;;;;6.26;100.00;94446.06;5075557;28;20199;-78
2021/10/12 00:49:52;;;;;;;22.60;10.87;;;;;;;6.24;100.00;94444.59;5076004;28;20198;-77
2021/10/12 00:52:19;;;;;;;24.30;11.13;;;;;;;6.22;100.00;94444.75;5075808;28;20332;-78
2021/10/12 00:54:45;;;;;;;24.20;10.40;;;;;;;6.22;100.00;94442.16;5075486;28;20264;-78
2021/10/12 00:57:11;;;;;;;27.40;10.70;;;;;;;6.20;100.00;94425.94;5075659;28;20202;-77
2021/10/12 00:59:41;;;;;;;24.23;10.90;;;;;;;6.18;100.00;94440.84;5075718;28;20221;-78
2021/10/12 01:02:09;;;;;;;22.23;10.73;;;;;;;6.22;100.00;94438.75;5075313;28;20309;-78
2021/10/12 01:04:36;;;;;;;23.97;10.07;;;;;;;6.19;100.00;94437.28;5075517;28;20206;-78
2021/10/12 01:07:03;;;;;;;20.80;9.77;;;;;;;6.19;100.00;94436.47;5075506;28;20202;-77
2021/10/12 01:09:30;;;;;;;23.10;9.17;;;;;;;6.13;100.00;94437.91;5075520;28;20604;-78
2021/10/12 01:11:56;;;;;;;19.37;9.40;;;;;;;6.15;100.00;94435.97;5075437;28;20248;-78
2021/10/12 01:14:23;;;;;;;25.97;10.63;;;;;;;6.16;100.00;94426.41;5074986;28;20562;-78
2021/10/12 01:16:51;;;;;;;22.33;10.13;;;;;;;6.17;100.00;94438.41;5075342;28;20205;-78
2021/10/12 01:19:17;;;;;;;22.40;9.37;;;;;;;6.17;100.00;94441.81;5075244;28;20203;-78
2021/10/12 01:21:47;;;;;;;24.10;9.47;;;;;;;6.21;100.00;94440.53;5074787;28;20194;-78
2021/10/12 01:24:14;;;;;;;19.67;9.43;;;;;;;6.21;100.00;94430.16;5075162;28;20226;-78
2021/10/12 01:26:42;;;;;;;20.17;9.20;;;;;;;6.25;100.00;94428.06;5074945;28;20203;-78
2021/10/12 01:29:09;;;;;;;22.43;9.13;;;;;;;6.29;100.00;94432.78;5074806;28;20211;-78
2021/10/12 01:31:36;;;;;;;23.27;9.77;;;;;;;6.33;100.00;94430.69;5075246;28;20202;-78
2021/10/12 01:34:11;;;;;;;19.97;9.60;;;;;;;6.33;100.00;94427.25;5074986;28;20615;-78
2021/10/12 01:36:37;;;;;;;21.50;9.57;;;;;;;6.34;100.00;94423.72;5074895;28;20194;-78
2021/10/12 01:39:05;;;;;;;19.73;9.00;;;;;;;6.36;100.00;94422.59;5074770;28;20194;-78
2021/10/12 01:41:32;;;;;;;21.27;8.73;;;;;;;6.36;100.00;94419.19;5074795;28;20607;-78
2021/10/12 01:43:58;;;;;;;16.63;8.83;;;;;;;6.39;100.00;94427.44;5074892;28;20280;-78
2021/10/12 01:46:25;;;;;;;23.07;9.10;;;;;;;6.41;100.00;94422.09;5074863;28;20207;-78
2021/10/12 01:48:51;;;;;;;19.53;8.80;;;;;;;6.44;100.00;94419.19;5074627;28;20198;-78
2021/10/12 01:51:18;;;;;;;16.20;7.77;;;;;;;6.48;100.00;94415.31;5074736;28;20202;-78
2021/10/12 01:53:44;;;;;;;19.47;8.97;;;;;;;6.53;100.00;94404.44;5074465;28;20203;-77
2021/10/12 01:56:12;;;;;;;20.60;9.27;;;;;;;6.55;100.00;94407.72;5074172;28;20283;-78
2021/10/12 01:58:38;;;;;;;15.67;7.50;;;;;;;6.58;100.00;94405.63;5074567;28;20203;-78
2021/10/12 02:01:05;;;;;;;18.60;8.63;;;;;;;6.56;100.00;94407.56;5074370;28;20276;-77
2021/10/12 02:03:32;;;;;;;16.93;8.23;;;;;;;6.55;100.00;94411.13;5074204;28;20601;-78
2021/10/12 02:05:58;;;;;;;15.37;7.70;;;;;;;6.56;100.00;94406.72;5074552;28;20206;-78
2021/10/12 02:08:25;;;;;;;17.83;7.80;;;;;;;6.56;100.00;94397.19;5074314;28;20229;-77
2021/10/12 02:10:51;;;;;;;24.30;8.37;;;;;;;6.53;100.00;94397.50;5073942;28;20534;-78
2021/10/12 02:13:19;;;;;;;15.53;8.07;;;;;;;6.54;100.00;94393.91;5073823;28;20510;-78
2021/10/12 02:15:45;;;;;;;15.67;7.63;;;;;;;6.56;100.00;94392.00;5073974;28;20190;-78
2021/10/12 02:18:12;;;;;;;17.30;7.83;;;;;;;6.56;100.00;94386.81;5074061;28;20604;-78
2021/10/12 02:20:38;;;;;;;21.53;9.20;;;;;;;6.54;100.00;94390.53;5073961;28;20249;-78
2021/10/12 02:23:05;;;;;;;21.23;11.30;;;;;;;6.52;100.00;94390.69;5074307;28;20322;-78
2021/10/12 02:25:31;;;;;;;24.27;9.47;;;;;;;6.54;100.00;94387.94;5073617;28;20407;-78
2021/10/12 02:27:58;;;;;;;21.50;9.83;;;;;;;6.55;100.00;94385.19;5073941;28;20202;-78
2021/10/12 02:30:26;;;;;;;31.37;13.80;;;;;;;6.60;100.00;94384.69;5073939;28;20251;-78
2021/10/12 02:32:52;;;;;;;28.90;13.40;;;;;;;6.62;100.00;94375.78;5073782;28;20210;-77
2021/10/12 02:35:18;;;;;;;31.17;13.13;;;;;;;6.63;100.00;94380.00;5073024;28;20224;-78
2021/10/12 02:37:45;;;;;;;41.23;15.00;;;;;;;6.63;100.00;94367.03;5073471;28;20203;-78
2021/10/12 02:40:11;;;;;;;32.43;14.07;;;;;;;6.66;100.00;94358.94;5073864;28;20198;-77
2021/10/12 02:42:38;;;;;;;27.97;13.40;;;;;;;6.61;100.00;94353.41;5073507;28;20202;-78
2021/10/12 02:45:05;;;;;;;32.57;14.20;;;;;;;6.54;100.00;94349.03;5073694;28;20199;-78
2021/10/12 02:47:34;;;;;;;24.43;10.30;;;;;;;6.45;100.00;94346.41;5073605;28;20565;-79
2021/10/12 02:50:00;;;;;;;20.80;9.67;;;;;;;6.38;100.00;94344.63;5073382;28;20732;-78
2021/10/12 02:52:27;;;;;;;22.90;10.30;;;;;;;6.28;100.00;94345.59;5073346;28;20202;-78
2021/10/12 02:54:53;;;;;;;30.00;12.00;;;;;;;6.23;100.00;94345.25;5073405;28;20308;-78
2021/10/12 02:57:20;;;;;;;33.50;13.93;;;;;;;6.19;100.00;94345.72;5073469;28;20255;-78
2021/10/12 02:59:46;;;;;;;27.20;12.60;;;;;;;6.15;100.00;94358.22;5073348;28;20203;-77
2021/10/12 03:02:15;;;;;;;22.47;11.30;;;;;;;6.10;100.00;94353.50;5073189;28;20233;-78
2021/10/12 03:04:43;;;;;;;27.57;11.57;;;;;;;6.08;100.00;94352.03;5073404;28;20255;-78
2021/10/12 03:07:09;;;;;;;23.33;10.30;;;;;;;6.09;100.00;94330.31;5073252;28;20224;-78
2021/10/12 03:09:35;;;;;;;23.17;11.20;;;;;;;5.96;100.00;94337.72;5073175;28;20199;-78
2021/10/12 03:12:02;;;;;;;20.73;9.87;;;;;;;5.87;100.00;94329.09;5073163;28;20195;-78
2021/10/12 03:14:28;;;;;;;21.73;10.63;;;;;;;5.80;100.00;94326.34;5073265;28;20244;-78
2021/10/12 03:16:55;;;;;;;21.77;10.33;;;;;;;5.77;100.00;94339.59;5073141;28;20657;-77
2021/10/12 03:19:22;;;;;;;24.27;10.77;;;;;;;5.78;100.00;94325.69;5073196;28;20248;-78
2021/10/12 03:21:52;;;;;;;26.07;11.70;;;;;;;5.80;100.00;94326.34;5073016;28;20681;-77
2021/10/12 03:24:19;;;;;;;21.87;10.60;;;;;;;5.80;100.00;94322.94;5073221;28;20222;-78
2021/10/12 03:26:46;;;;;;;31.07;13.03;;;;;;;5.83;100.00;94317.41;5073046;28;20214;-77
2021/10/12 03:29:12;;;;;;;25.13;11.70;;;;;;;5.82;100.00;94316.63;5073141;28;20198;-77
2021/10/12 03:31:38;;;;;;;27.37;13.07;;;;;;;5.85;100.00;94311.13;5073276;28;20292;-77
2021/10/12 03:34:05;;;;;;;31.07;12.80;;;;;;;5.89;100.00;94312.41;5073050;28;20203;-77
2021/10/12 03:36:31;;;;;;;32.03;13.20;;;;;;;5.95;100.00;94299.81;5073278;28;20260;-78
2021/10/12 03:38:59;;;;;;;43.53;16.05;;;;;;;5.99;100.00;94301.16;5072682;28;20488;-78
2021/10/12 03:41:26;;;;;;;26.23;11.97;;;;;;;6.02;100.00;94295.66;5073228;28;20198;-78
2021/10/12 03:43:52;;;;;;;29.13;12.47;;;;;;;6.05;100.00;94285.78;5072771;28;20257;-78
2021/10/12 03:46:18;;;;;;;34.03;13.87;;;;;;;6.01;100.00;94283.66;5075393;28;20680;-78
2021/10/12 03:48:45;;;;;;;38.33;14.07;;;;;;;5.88;100.00;94274.53;5076907;28;20673;-77
2021/10/12 03:51:12;;;;;;;32.13;13.60;;;;;;;5.76;100.00;94268.00;5076987;28;20248;-78
2021/10/12 03:53:38;;;;;;;29.73;13.13;;;;;;;5.61;100.00;94260.03;5077088;28;20199;-78
2021/10/12 03:56:06;;;;;;;30.10;13.47;;;;;;;5.50;100.00;94250.81;5076387;28;20276;-78
2021/10/12 03:58:33;;;;;;;29.10;13.53;;;;;;;5.49;100.00;94249.16;5076803;28;20199;-77
2021/10/12 04:01:00;;;;;;;26.73;11.80;;;;;;;5.44;100.00;94260.97;5076497;28;20203;-77
2021/10/12 04:03:26;;;;;;;31.07;11.73;;;;;;;5.27;100.00;94257.53;5076667;28;20222;-77
2021/10/12 04:05:52;;;;;;;24.60;11.37;;;;;;;5.34;100.00;94261.91;5076784;28;20203;-77
2021/10/12 04:08:19;;;;;;;37.07;11.33;;;;;;;5.23;100.00;94267.38;5076779;28;20199;-77
2021/10/12 04:10:45;;;;;;;34.43;13.90;;;;;;;5.21;100.00;94258.94;5076580;28;20256;-77
2021/10/12 04:13:13;;;;;;;31.93;12.33;;;;;;;5.09;100.00;94267.94;5076350;28;20279;-77
2021/10/12 04:15:39;;;;;;;32.47;13.30;;;;;;;4.97;100.00;94270.00;5076187;28;20234;-77
2021/10/12 04:18:09;;;;;;;33.43;13.47;;;;;;;4.87;100.00;94277.06;5075982;28;20202;-77
2021/10/12 04:20:36;;;;;;;31.80;14.73;;;;;;;4.76;100.00;94285.88;5076629;28;20226;-77
2021/10/12 04:23:03;;;;;;;42.90;16.07;;;;;;;4.80;100.00;94280.25;5076218;28;20194;-77
2021/10/12 04:25:30;;;;;;;36.20;14.57;;;;;;;4.74;100.00;94277.47;5076105;28;20672;-77
2021/10/12 04:27:56;;;;;;;36.73;14.97;;;;;;;4.69;100.00;94277.91;5076253;28;20256;-77
2021/10/12 04:30:24;;;;;;;40.07;14.77;;;;;;;4.67;100.00;94276.47;5075959;28;20207;-77
2021/10/12 04:32:50;;;;;;;41.07;15.97;;;;;;;4.73;100.00;94278.41;5076303;28;20198;-77
2021/10/12 04:35:17;;;;;;;55.50;20.97;;;;;;;4.75;100.00;94277.31;5076051;28;20207;-77
2021/10/12 04:37:43;;;;;;;46.90;17.60;;;;;;;4.86;100.00;94278.81;5075894;28;20719;-77
2021/10/12 04:40:10;;;;;;;421.57;164.77;;;;;;;4.92;100.00;94285.16;5076115;28;20253;-76
2021/10/12 04:42:37;;;;;;;77.87;32.23;;;;;;;4.89;100.00;94285.47;5075894;28;20248;-77
2021/10/12 04:45:04;;;;;;;43.53;17.13;;;;;;;4.85;100.00;94277.22;5076045;28;20624;-77
2021/10/12 04:47:32;;;;;;;38.10;16.60;;;;;;;4.85;100.00;94273.81;5076622;28;20264;-77
2021/10/12 04:49:58;;;;;;;39.80;15.67;;;;;;;4.85;100.00;94272.03;5075808;28;20279;-77
2021/10/12 04:52:25;;;;;;;38.57;16.10;;;;;;;4.86;100.00;94262.50;5076415;28;20202;-77
2021/10/12 04:54:51;;;;;;;36.70;14.83;;;;;;;4.88;100.00;94270.91;5075528;28;20235;-77
2021/10/12 04:57:17;;;;;;;49.57;18.33;;;;;;;4.95;100.00;94266.75;5074659;28;20646;-77
2021/10/12 04:59:44;;;;;;;40.57;15.20;;;;;;;4.97;100.00;94260.44;5075568;28;20203;-77
2021/10/12 05:02:10;;;;;;;39.93;14.63;;;;;;;4.99;100.00;94263.69;5075321;28;20684;-77
2021/10/12 05:04:38;;;;;;;36.83;14.90;;;;;;;5.02;100.00;94254.81;5075353;28;20230;-77
2021/10/12 05:07:04;;;;;;;48.10;16.70;;;;;;;5.08;100.00;94256.81;5075648;28;20199;-78
2021/10/12 05:09:31;;;;;;;40.47;15.13;;;;;;;5.11;100.00;94256.50;5075485;28;20252;-78
2021/10/12 05:11:57;;;;;;;37.73;14.47;;;;;;;5.06;100.00;94243.19;5075441;28;20198;-77
2021/10/12 05:14:24;;;;;;;40.63;15.33;;;;;;;5.07;100.00;94246.59;5075412;28;20628;-78
2021/10/12 05:16:51;;;;;;;44.50;15.87;;;;;;;5.07;100.00;94250.00;5075399;28;20206;-78
2021/10/12 05:19:17;;;;;;;37.77;15.30;;;;;;;5.06;100.00;94240.59;5075389;28;20202;-77
2021/10/12 05:21:45;;;;;;;30.87;13.77;;;;;;;5.09;100.00;94242.06;5075221;28;20248;-78
2021/10/12 05:24:12;;;;;;;30.77;12.23;;;;;;;5.08;100.00;94227.50;5075198;28;20348;-78
2021/10/12 05:26:38;;;;;;;40.10;14.67;;;;;;;5.07;100.00;94229.28;5074974;28;20256;-78
2021/10/12 05:29:05;;;;;;;34.20;13.93;;;;;;;5.10;100.00;94223.81;5075074;28;20203;-78
2021/10/12 05:31:31;;;;;;;41.40;16.03;;;;;;;5.09;100.00;94222.19;5075291;28;20248;-79
2021/10/12 05:33:58;;;;;;;41.33;14.37;;;;;;;5.09;100.00;94221.38;5075056;28;20206;-77
2021/10/12 05:36:24;;;;;;;36.63;15.80;;;;;;;5.09;100.00;94218.78;5075084;28;20547;-78
2021/10/12 05:38:52;;;;;;;37.93;15.70;;;;;;;5.10;100.00;94217.84;5074707;28;20233;-78
2021/10/12 05:41:18;;;;;;;36.87;14.97;;;;;;;5.11;100.00;94228.03;5074672;28;20592;-78
2021/10/12 05:43:46;;;;;;;39.73;14.27;;;;;;;5.15;100.00;94228.53;5074757;28;20276;-79
2021/10/12 05:46:12;;;;;;;36.43;15.20;;;;;;;5.17;100.00;94229.97;5074677;28;20203;-78
2021/10/12 05:48:39;;;;;;;30.03;13.73;;;;;;;5.21;100.00;94240.03;5074802;28;20198;-78
2021/10/12 05:51:08;;;;;;;45.50;18.67;;;;;;;5.25;100.00;94239.56;5074563;28;20203;-79
2021/10/12 05:53:41;;;;;;;46.97;19.93;;;;;;;5.31;100.00;94240.69;5074517;28;20210;-78
2021/10/12 05:56:12;;;;;;;46.00;17.77;;;;;;;5.36;100.00;94239.28;5074264;28;20242;-78
2021/10/12 05:58:43;;;;;;;46.60;17.83;;;;;;;5.43;100.00;94246.41;5074463;28;20199;-78
2021/10/12 06:01:11;;;;;;;50.43;17.40;;;;;;;5.48;100.00;94250.16;5074520;28;20207;-78
2021/10/12 06:03:38;;;;;;;49.80;17.23;;;;;;;5.51;100.00;94244.66;5074291;28;20677;-78
2021/10/12 06:06:05;;;;;;;44.10;16.43;;;;;;;5.59;100.00;94243.06;5074369;28;20198;-78
2021/10/12 06:08:33;;;;;;;51.43;17.73;;;;;;;5.69;100.00;94238.53;5074231;28;20221;-78
2021/10/12 06:11:00;;;;;;;57.37;20.40;;;;;;;5.74;100.00;94236.28;5074384;28;20199;-78
2021/10/12 06:13:29;;;;;;;52.97;20.53;;;;;;;5.78;100.00;94241.97;5074229;28;20199;-79
2021/10/12 06:15:56;;;;;;;45.63;16.60;;;;;;;5.75;100.00;94238.72;5074361;28;20213;-79
2021/10/12 06:18:23;;;;;;;43.13;16.53;;;;;;;5.78;100.00;94237.59;5074034;28;20206;-78
2021/10/12 06:20:50;;;;;;;45.73;17.47;;;;;;;5.84;100.00;94233.56;5073198;28;20198;-79
2021/10/12 06:23:18;;;;;;;56.13;17.90;;;;;;;5.86;100.00;94240.22;5074341;28;20233;-78
2021/10/12 06:25:45;;;;;;;46.17;18.13;;;;;;;5.90;100.00;94243.28;5073996;28;20296;-78
2021/10/12 06:28:13;;;;;;;64.70;22.13;;;;;;;5.91;100.00;94237.94;5073981;28;20202;-77
2021/10/12 06:30:41;;;;;;;69.73;23.07;;;;;;;6.00;100.00;94243.16;5073666;28;20203;-78
2021/10/12 06:33:08;;;;;;;73.67;23.07;;;;;;;6.07;100.00;94244.13;5077248;28;20203;-78
2021/10/12 06:35:36;;;;;;;63.73;21.93;;;;;;;6.10;100.00;94243.81;5078194;28;20601;-78
2021/10/12 06:38:04;;;;;;;56.83;19.97;;;;;;;6.17;100.00;94237.00;5074065;28;20202;-78
2021/10/12 06:40:31;;;;;;;60.80;22.80;;;;;;;6.28;100.00;94231.50;5073699;28;20250;-78
2021/10/12 06:42:58;;;;;;;56.13;20.73;;;;;;;6.31;100.00;94240.72;5073648;28;20547;-78
2021/10/12 06:45:25;;;;;;;54.53;19.37;;;;;;;6.35;100.00;94242.03;5073634;28;20291;-78
2021/10/12 06:48:02;;;;;;;48.00;18.97;;;;;;;6.36;100.00;94235.06;5076356;28;20253;-78
2021/10/12 06:50:29;;;;;;;45.67;19.03;;;;;;;6.41;100.00;94238.81;5076785;28;20565;-78
2021/10/12 06:52:55;;;;;;;59.60;20.80;;;;;;;6.43;100.00;94231.66;5073596;28;20228;-78
2021/10/12 06:55:22;;;;;;;49.30;19.47;;;;;;;6.58;100.00;94237.00;5073367;28;20283;-78
2021/10/12 06:57:49;;;;;;;50.60;19.70;;;;;;;6.64;100.00;94241.53;5073362;28;20684;-78
2021/10/12 07:00:17;;;;;;;52.47;20.73;;;;;;;6.68;100.00;94234.22;5073239;28;20202;-77
2021/10/12 07:02:45;;;;;;;48.30;19.63;;;;;;;6.81;100.00;94234.53;5073309;28;20195;-78
2021/10/12 07:05:14;;;;;;;53.47;21.77;;;;;;;6.81;100.00;94236.28;5073383;28;20230;-78
2021/10/12 07:07:41;;;;;;;53.97;21.33;;;;;;;6.73;100.00;94241.50;5073534;28;20546;-78
2021/10/12 07:10:10;;;;;;;48.30;19.67;;;;;;;6.77;100.00;94238.41;5073918;28;20608;-77
2021/10/12 07:12:36;;;;;;;51.07;19.30;;;;;;;6.92;100.00;94242.94;5073503;28;20199;-78
2021/10/12 07:15:04;;;;;;;45.90;20.23;;;;;;;6.76;100.00;94242.00;5073226;28;20199;-78
2021/10/12 07:17:30;;;;;;;47.53;20.07;;;;;;;6.85;100.00;94245.38;5073406;28;20231;-78
2021/10/12 07:19:57;;;;;;;48.27;19.23;;;;;;;6.74;100.00;94248.31;5072530;28;20662;-78
2021/10/12 07:22:25;;;;;;;45.60;17.63;;;;;;;6.77;100.00;94248.78;5073107;28;20256;-78
2021/10/12 07:24:52;;;;;;;40.87;17.10;;;;;;;6.88;100.00;94249.41;5073052;28;20631;-78
2021/10/12 07:27:19;;;;;;;45.30;17.60;;;;;;;6.64;100.00;94245.91;5073065;28;20252;-77
2021/10/12 07:29:47;;;;;;;32.10;15.23;;;;;;;6.56;100.00;94251.09;5073330;28;20210;-78
2021/10/12 07:32:14;;;;;;;39.07;15.10;;;;;;;6.61;100.00;94254.84;5073287;28;20260;-78
2021/10/12 07:34:40;;;;;;;39.57;15.33;;;;;;;6.51;100.00;94254.16;5073061;28;20203;-78
2021/10/12 07:37:06;;;;;;;34.47;15.40;;;;;;;6.46;100.00;94257.28;5073256;28;20202;-78
2021/10/12 07:39:34;;;;;;;36.43;15.47;;;;;;;6.47;100.00;94260.66;5073244;28;20252;-78
2021/10/12 07:42:05;;;;;;;38.60;15.40;;;;;;;6.44;100.00;94254.00;5072827;28;20538;-78
2021/10/12 07:44:31;;;;;;;35.17;15.77;;;;;;;6.49;100.00;94261.31;5072986;28;20230;-78
2021/10/12 07:46:57;;;;;;;32.13;15.40;;;;;;;6.55;100.00;94255.47;5073103;28;20679;-78
2021/10/12 07:49:24;;;;;;;33.90;15.03;;;;;;;6.63;100.00;94263.25;5072935;28;20203;-78
2021/10/12 07:51:51;;;;;;;35.20;15.80;;;;;;;6.61;100.00;94254.00;5072900;28;20206;-78
2021/10/12 07:54:24;;;;;;;64.87;22.77;;;;;;;6.57;100.00;94261.31;5072478;28;20715;-79
2021/10/12 07:56:52;;;;;;;46.83;17.07;;;;;;;6.46;100.00;94261.63;5072711;28;20680;-78
2021/10/12 07:59:18;;;;;;;45.77;17.13;;;;;;;6.40;100.00;94262.31;5072915;28;20252;-79
2021/10/12 08:01:45;;;;;;;47.37;17.83;;;;;;;6.36;100.00;94258.41;5072883;28;20203;-78
2021/10/12 08:04:12;;;;;;;51.53;19.07;;;;;;;6.37;100.00;94262.63;5072685;28;20199;-78
2021/10/12 08:06:39;;;;;;;53.07;20.07;;;;;;;6.25;100.00;94260.34;5072866;28;20203;-78
2021/10/12 08:09:05;;;;;;;45.73;19.03;;;;;;;6.30;100.00;94257.28;5072687;28;20285;-77
2021/10/12 08:11:32;;;;;;;56.90;24.67;;;;;;;6.38;100.00;94256.44;5071624;28;20897;-78
2021/10/12 08:14:01;;;;;;;51.93;20.27;;;;;;;6.38;100.00;94259.03;5072498;28;20657;-78
2021/10/12 08:16:30;;;;;;;46.07;18.77;;;;;;;6.44;100.00;94261.00;5072639;28;20207;-78
2021/10/12 08:18:58;;;;;;;52.97;21.23;;;;;;;6.42;100.00;94265.53;5072635;28;20592;-77
2021/10/12 08:21:25;;;;;;;47.23;19.30;;;;;;;6.34;100.00;94274.13;5072627;28;20198;-77
2021/10/12 08:23:54;;;;;;;50.67;19.80;;;;;;;6.35;100.00;94272.34;5072773;28;20704;-78
2021/10/12 08:26:20;;;;;;;52.50;20.23;;;;;;;6.35;100.00;94267.16;5072158;28;20317;-77
2021/10/12 08:28:47;;;;;;;33.63;15.27;;;;;;;6.51;100.00;94248.19;5072611;28;20289;-77
2021/10/12 08:31:14;;;;;;;41.60;17.47;;;;;;;6.43;100.00;94243.84;5072480;28;20285;-77
2021/10/12 08:33:41;;;;;;;37.80;16.47;;;;;;;6.64;100.00;94246.72;5075241;28;20226;-77
2021/10/12 08:36:08;;;;;;;43.80;17.73;;;;;;;6.78;100.00;94242.63;5075926;28;20607;-77
2021/10/12 08:38:34;;;;;;;46.00;18.23;;;;;;;6.91;100.00;94238.72;5076080;28;20264;-76
2021/10/12 08:41:05;;;;;;;41.83;18.37;;;;;;;7.06;100.00;94252.63;5076200;28;20252;-77
2021/10/12 08:43:32;;;;;;;35.53;16.03;;;;;;;6.80;100.00;94242.47;5075664;28;20557;-77
2021/10/12 08:46:00;;;;;;;45.10;16.97;;;;;;;6.83;100.00;94248.13;5075882;28;20230;-77
2021/10/12 08:48:31;;;;;;;40.47;17.70;;;;;;;6.74;100.00;94245.72;5075664;28;20226;-77
2021/10/12 08:50:59;;;;;;;45.53;17.03;;;;;;;6.74;100.00;94240.53;5075953;28;20206;-77
2021/10/12 08:53:27;;;;;;;44.57;17.50;;;;;;;6.87;100.00;94233.03;5075548;28;20592;-77
2021/10/12 08:55:53;;;;;;;48.33;18.97;;;;;;;6.96;100.00;94232.06;5075441;28;20235;-77
2021/10/12 08:58:20;;;;;;;43.93;18.03;;;;;;;7.15;100.00;94230.06;5075675;28;20229;-77
2021/10/12 09:00:46;;;;;;;56.23;19.07;;;;;;;7.20;100.00;94228.56;5075523;28;20607;-77
2021/10/12 09:03:29;;;;;;;42.73;18.93;;;;;;;7.32;100.00;94221.19;5075216;28;20437;-77
2021/10/12 09:05:58;;;;;;;46.60;18.57;;;;;;;7.49;100.00;94215.94;5075665;28;20222;-77
2021/10/12 09:08:27;;;;;;;39.30;16.87;;;;;;;7.73;100.00;94220.19;5075312;28;20654;-76
2021/10/12 09:10:54;;;;;;;36.23;15.33;;;;;;;7.83;100.00;94212.97;5075467;28;20276;-77
2021/10/12 09:13:20;;;;;;;34.93;13.67;;;;;;;8.13;100.00;94213.91;5075152;28;20256;-76
2021/10/12 09:16:07;;;;;;;26.97;12.80;;;;;;;8.27;100.00;94199.31;5075208;28;20530;-77
2021/10/12 09:18:49;;;;;;;22.67;12.13;;;;;;;8.29;100.00;94201.75;5075276;28;20207;-77
2021/10/12 09:21:20;;;;;;;25.70;11.70;;;;;;;8.73;100.00;94211.47;5075306;28;20289;-77
2021/10/12 09:23:47;;;;;;;22.43;9.90;;;;;;;9.06;100.00;94198.91;5075205;28;20209;-77
2021/10/12 09:26:21;;;;;;;26.07;12.17;;;;;;;8.68;100.00;94201.59;5074703;28;20227;-77
2021/10/12 09:28:48;;;;;;;25.50;12.57;;;;;;;8.90;100.00;94209.50;5075069;28;20209;-77
2021/10/12 09:31:14;;;;;;;24.37;10.43;;;;;;;9.26;100.00;94198.34;5074866;28;20676;-77
2021/10/12 09:33:48;;;;;;;21.17;8.83;;;;;;;9.32;100.00;94196.81;5074847;28;20565;-77
2021/10/12 09:36:32;;;;;;;17.20;8.67;;;;;;;9.66;100.00;94198.00;5074705;28;20289;-77
2021/10/12 09:38:59;;;;;;;17.57;8.33;;;;;;;9.48;100.00;94198.41;5072661;28;20209;-77
2021/10/12 09:41:27;;;;;;;19.87;9.00;;;;;;;9.86;100.00;94199.03;5074643;28;20199;-76
2021/10/12 09:44:00;;;;;;;16.50;7.60;;;;;;;10.19;100.00;94183.69;5074044;28;20661;-78
2021/10/12 09:46:30;;;;;;;17.47;8.23;;;;;;;10.21;100.00;94180.88;5074478;28;20223;-77
2021/10/12 09:49:09;;;;;;;16.50;7.37;;;;;;;10.58;100.00;94176.38;5074442;28;20202;-77
2021/10/12 09:51:37;;;;;;;12.53;6.87;;;;;;;10.58;100.00;94176.38;5074625;28;20557;-77
2021/10/12 09:54:04;;;;;;;13.23;5.77;;;;;;;9.66;100.00;94180.56;5074452;28;20650;-77
2021/10/12 09:56:30;;;;;;;13.90;6.40;;;;;;;9.57;100.00;94185.06;5074559;28;20591;-77
2021/10/12 09:58:56;;;;;;;12.33;6.50;;;;;;;9.76;100.00;94182.88;5074556;28;20198;-77
2021/10/12 10:01:24;;;;;;;11.53;4.73;;;;;;;9.80;100.00;94173.69;5074351;28;20206;-77
2021/10/12 10:03:52;;;;;;;12.60;5.50;;;;;;;9.51;100.00;94180.59;5074557;28;20230;-77
2021/10/12 10:06:19;;;;;;;10.35;5.47;;;;;;;9.39;100.00;94177.66;5074350;28;20280;-77
2021/10/12 10:08:52;;;;;;;13.40;5.70;;;;;;;9.33;100.00;94169.78;5074204;28;20202;-77
2021/10/12 10:11:19;;;;;;;10.47;5.77;;;;;;;9.01;100.00;94174.38;5074320;28;20229;-77
2021/10/12 10:13:46;;;;;;;12.03;5.73;;;;;;;8.85;100.00;94170.19;5073971;28;20253;-78
2021/10/12 10:16:14;;;;;;;12.93;6.30;;;;;;;8.72;100.00;94170.78;5074083;28;20198;-77
2021/10/12 10:18:41;;;;;;;8.23;4.93;;;;;;;8.32;100.00;94162.38;5074057;28;20202;-77
2021/10/12 10:21:10;;;;;;;10.67;4.93;;;;;;;8.23;100.00;94166.06;5074069;28;20202;-77
2021/10/12 10:23:59;;;;;;;11.70;5.30;;;;;;;7.91;100.00;94165.31;5073891;28;20199;-77
2021/10/12 10:26:28;;;;;;;14.43;4.87;;;;;;;7.84;100.00;94159.19;5073799;28;20262;-77
2021/10/12 10:28:56;;;;;;;11.13;4.73;;;;;;;7.85;100.00;94153.81;5073725;28;20657;-78
2021/10/12 10:31:39;;;;;;;8.87;4.53;;;;;;;7.96;100.00;94142.22;5073840;28;20198;-77
2021/10/12 10:34:32;;;;;;;11.40;5.50;;;;;;;7.94;100.00;94144.16;5073742;28;20250;-78
2021/10/12 10:37:23;;;;;;;8.67;4.57;;;;;;;8.09;100.00;94145.03;5071638;28;20203;-77
2021/10/12 10:39:52;;;;;;;8.70;4.90;;;;;;;8.49;100.00;94144.84;5064788;28;20289;-77
2021/10/12 10:42:50;;;;;;;8.37;4.37;;;;;;;8.52;100.00;94145.28;5073439;28;20202;-77
2021/10/12 10:45:17;;;;;;;10.77;4.93;;;;;;;8.58;100.00;94137.78;5073363;28;20223;-77
2021/10/12 10:47:48;;;;;;;10.57;4.53;;;;;;;8.23;100.00;94145.25;5073668;28;20199;-77
2021/10/12 10:50:16;;;;;;;10.30;5.20;;;;;;;8.13;100.00;94143.69;5073894;28;20202;-77
2021/10/12 10:52:44;;;;;;;12.67;5.13;;;;;;;7.94;100.00;94137.19;5073573;28;20273;-78
2021/10/12 10:55:13;;;;;;;10.53;5.07;;;;;;;7.69;100.00;94136.56;5072541;28;20222;-77
2021/10/12 10:57:59;;;;;;;12.13;5.13;;;;;;;7.71;100.00;94145.00;5073333;28;20248;-78
2021/10/12 11:00:27;;;;;;;14.17;6.53;;;;;;;7.81;100.00;94133.53;5073209;28;20202;-77
2021/10/12 11:02:55;;;;;;;13.17;6.13;;;;;;;7.55;100.00;94127.72;5073312;28;20252;-78
2021/10/12 11:05:33;;;;;;;15.27;6.03;;;;;;;7.64;100.00;94133.66;5073372;28;20233;-78
2021/10/12 11:08:18;;;;;;;13.73;6.80;;;;;;;7.59;100.00;94122.97;5073338;28;20199;-77
2021/10/12 11:10:46;;;;;;;16.50;7.00;;;;;;;7.75;100.00;94124.66;5073544;28;20202;-78
2021/10/12 11:13:25;;;;;;;15.80;6.77;;;;;;;7.51;100.00;94116.06;5073310;28;20410;-78
2021/10/12 11:15:54;;;;;;;17.50;6.67;;;;;;;7.48;100.00;94115.63;5073286;28;20206;-78
2021/10/12 11:18:20;;;;;;;15.57;7.37;;;;;;;7.48;100.00;94111.22;5073039;28;20205;-78
2021/10/12 11:20:50;;;;;;;19.47;8.80;;;;;;;7.57;100.00;94117.97;5073063;28;20244;-78
2021/10/12 11:23:24;;;;;;;21.90;9.13;;;;;;;7.53;100.00;94110.72;5072913;28;20661;-77